OOCL Oakland — 3EKJ6 — position and weather

sailwx.info

Track history (hours):
 
Tides and Currents Weather Stations Pressure Air Temp Water Temp Dewpoint Dewpoint Depression Visibility Wind Speed Wind Dir Waves Ship Positions

OOCL Oakland

Last reported at 2016-May-15 19:30 UTC. Time now 2016-May-27 10:26 UTC.
Position S 26°26' E 153°28'.
Warning: this ship's position is 11 days out of date.

Length 280 m; draft 11.6 m.

Type: Ship. MMSI: 372703235.

Date/timePositionNaut miles runAvg speedWind from/ knotsBaromVisibWave heightAir tempDewpointWater temp
2016-May-15 19:30S 26°26' E 153°28'2311.2
2016-May-15 17:25S 26°44' E 153°11'1213.8
2016-May-15 16:33S 26°55' E 153°12'1313.3
2016-May-15 15:33S 27°07' E 153°20'1413.8
2016-May-15 14:33S 27°19' E 153°12'4 4.0
2016-May-15 13:33S 27°22' E 153°10'0 0.0
2016-May-15 12:33S 27°22' E 153°10'0 0.0
2016-May-15 11:33S 27°22' E 153°10'0 0.0
2016-May-15 10:33S 27°22' E 153°10'0 0.0
2016-May-15 09:33S 27°22' E 153°10'0 0.0
2016-May-15 08:33S 27°22' E 153°10'0 0.0
2016-May-15 07:33S 27°22' E 153°10'0 0.0
2016-May-15 06:33S 27°22' E 153°10'0 0.0
2016-May-15 05:33S 27°22' E 153°10'0 0.0
2016-May-15 04:33S 27°22' E 153°10'0 0.0
2016-May-15 03:33S 27°22' E 153°10'0 0.0
2016-May-15 02:33S 27°22' E 153°10'0 0.0
2016-May-15 01:33S 27°22' E 153°10'0 0.0
2016-May-15 00:33S 27°22' E 153°10'0 0.0
2016-May-14 23:30S 27°22' E 153°10'0 0.0
2016-May-14 22:33S 27°22' E 153°10'0 0.0
2016-May-14 21:33S 27°22' E 153°10'0 0.0
2016-May-14 20:33S 27°22' E 153°10'0 0.0
2016-May-14 19:33S 27°22' E 153°10'0 0.0
2016-May-14 18:33S 27°22' E 153°10'0 0.0
2016-May-14 17:33S 27°22' E 153°10'0 0.0
2016-May-14 16:33S 27°22' E 153°10'0 0.0
2016-May-14 15:33S 27°22' E 153°10'0 0.0
2016-May-14 14:33S 27°22' E 153°10'0 0.0
2016-May-14 13:33S 27°22' E 153°10'0 0.0
2016-May-14 12:33S 27°22' E 153°10'0 0.0
2016-May-14 11:33S 27°22' E 153°10'9 8.6
2016-May-14 10:34S 27°16' E 153°17'1313.2
2016-May-14 09:34S 27°03' E 153°16'1514.6
2016-May-14 08:34S 26°49' E 153°11'7 7.4
2016-May-14 07:33S 26°42' E 153°14'5 5.3
2016-May-14 06:33S 26°45' E 153°20'1010.3
2016-May-14 05:34S 26°52' E 153°28'1616.3
2016-May-14 04:33S 27°05' E 153°38'1717.2
2016-May-14 03:33S 27°22' E 153°43'1716.5
2016-May-14 02:33S 27°39' E 153°45'1616.3
2016-May-14 01:33S 27°55' E 153°47'1716.8
2016-May-14 00:33S 28°12' E 153°49'25618.3
2016-May-13 10:33S 32°22' E 152°45'1918.7
2016-May-13 09:33S 32°39' E 152°37'1919.0
2016-May-13 08:33S 32°57' E 152°29'1818.4
2016-May-13 07:33S 33°14' E 152°21'1818.3
2016-May-13 06:33S 33°31' E 152°13'16120.0
2016-May-12 22:31S 36°01' E 150°59'1919.4
2016-May-12 21:33S 36°18' E 150°51'1919.3
2016-May-12 20:33S 36°36' E 150°42'1919.2
2016-May-12 19:33S 36°54' E 150°33'1919.0
2016-May-12 18:33S 37°11' E 150°25'2020.4
2016-May-12 17:33S 37°30' E 150°15'2019.7
2016-May-12 16:33S 37°45' E 149°58'2020.4
2016-May-12 15:33S 37°57' E 149°38'2020.1
2016-May-12 14:33S 38°10' E 149°18'2019.6
2016-May-12 13:33S 38°22' E 148°58'2020.0
2016-May-12 12:33S 38°34' E 148°37'2120.6
2016-May-12 11:33S 38°46' E 148°17'4221.1
2016-May-12 09:33S 39°02' E 147°26'2120.7
2016-May-12 08:33S 39°09' E 147°01'2020.2
2016-May-12 07:33S 39°16' E 146°37'2019.7
2016-May-12 06:33S 39°16' E 146°12'2120.7
2016-May-12 05:33S 39°05' E 145°49'  
2016-May-09 23:30S 38°60' E 145°46'1313.9
2016-May-09 22:33S 39°06' E 146°00'1514.9
2016-May-09 21:33S 39°12' E 146°18'1616.0
2016-May-09 20:33S 39°07' E 146°38'1615.8
2016-May-09 19:33S 39°02' E 146°57'1615.5
2016-May-09 18:33S 38°57' E 147°16'1615.7
2016-May-09 17:33S 38°53' E 147°35'5417.7
2016-May-09 14:29S 38°27' E 148°37'1617.3
2016-May-09 13:33S 38°18' E 148°53'1817.5
2016-May-09 12:33S 38°08' E 149°12'1817.6
2016-May-09 11:33S 37°58' E 149°30'1817.8
2016-May-09 10:33S 37°48' E 149°49'1716.6
2016-May-09 09:33S 37°39' E 150°06'1414.2
2016-May-09 08:33S 37°26' E 150°13'1515.2
2016-May-09 07:33S 37°12' E 150°20'1615.5
2016-May-09 06:33S 36°57' E 150°26'1717.1
2016-May-09 05:33S 36°40' E 150°32'1818.2
2016-May-09 04:33S 36°23' E 150°36'2617.9
2016-May-09 03:05S 35°57' E 150°44'  
2016-May-06 21:33S 33°31' E 151°48'1818.3
2016-May-06 20:33S 33°16' E 152°01'1818.1
2016-May-06 19:33S 33°02' E 152°13'1717.6
2016-May-06 18:34S 32°48' E 152°26'1515.1
2016-May-06 17:33S 32°35' E 152°36'1414.1
2016-May-06 16:34S 32°23' E 152°44'27517.0
2016-May-06 00:23S 27°55' E 153°54'1619.2
2016-May-05 23:33S 27°39' E 153°55'3819.2
2016-May-05 21:33S 27°01' E 153°56'  
Track history (hours):
 
Tides and Currents Weather Stations Pressure Air Temp Water Temp Dewpoint Dewpoint Depression Visibility Wind Speed Wind Dir Waves Ship Positions

OOCL Oakland

Last reported at 2016-May-15 19:30 UTC. Time now 2016-May-27 10:26 UTC.
Position S 26°26' E 153°28'.
Warning: this ship's position is 11 days out of date.

Length 280 m; draft 11.6 m.

Type: Ship. MMSI: 372703235.

Date/timePositionNaut miles runAvg speedWind from/ knotsBaromVisibWave heightAir tempDewpointWater temp
2016-May-15 19:30S 26°26' E 153°28'2311.2
2016-May-15 17:25S 26°44' E 153°11'1213.8
2016-May-15 16:33S 26°55' E 153°12'1313.3
2016-May-15 15:33S 27°07' E 153°20'1413.8
2016-May-15 14:33S 27°19' E 153°12'4 4.0
2016-May-15 13:33S 27°22' E 153°10'0 0.0
2016-May-15 12:33S 27°22' E 153°10'0 0.0
2016-May-15 11:33S 27°22' E 153°10'0 0.0
2016-May-15 10:33S 27°22' E 153°10'0 0.0
2016-May-15 09:33S 27°22' E 153°10'0 0.0
2016-May-15 08:33S 27°22' E 153°10'0 0.0
2016-May-15 07:33S 27°22' E 153°10'0 0.0
2016-May-15 06:33S 27°22' E 153°10'0 0.0
2016-May-15 05:33S 27°22' E 153°10'0 0.0
2016-May-15 04:33S 27°22' E 153°10'0 0.0
2016-May-15 03:33S 27°22' E 153°10'0 0.0
2016-May-15 02:33S 27°22' E 153°10'0 0.0
2016-May-15 01:33S 27°22' E 153°10'0 0.0
2016-May-15 00:33S 27°22' E 153°10'0 0.0
2016-May-14 23:30S 27°22' E 153°10'0 0.0
2016-May-14 22:33S 27°22' E 153°10'0 0.0
2016-May-14 21:33S 27°22' E 153°10'0 0.0
2016-May-14 20:33S 27°22' E 153°10'0 0.0
2016-May-14 19:33S 27°22' E 153°10'0 0.0
2016-May-14 18:33S 27°22' E 153°10'0 0.0
2016-May-14 17:33S 27°22' E 153°10'0 0.0
2016-May-14 16:33S 27°22' E 153°10'0 0.0
2016-May-14 15:33S 27°22' E 153°10'0 0.0
2016-May-14 14:33S 27°22' E 153°10'0 0.0
2016-May-14 13:33S 27°22' E 153°10'0 0.0
2016-May-14 12:33S 27°22' E 153°10'0 0.0
2016-May-14 11:33S 27°22' E 153°10'9 8.6
2016-May-14 10:34S 27°16' E 153°17'1313.2
2016-May-14 09:34S 27°03' E 153°16'1514.6
2016-May-14 08:34S 26°49' E 153°11'7 7.4
2016-May-14 07:33S 26°42' E 153°14'5 5.3
2016-May-14 06:33S 26°45' E 153°20'1010.3
2016-May-14 05:34S 26°52' E 153°28'1616.3
2016-May-14 04:33S 27°05' E 153°38'1717.2
2016-May-14 03:33S 27°22' E 153°43'1716.5
2016-May-14 02:33S 27°39' E 153°45'1616.3
2016-May-14 01:33S 27°55' E 153°47'1716.8
2016-May-14 00:33S 28°12' E 153°49'25618.3
2016-May-13 10:33S 32°22' E 152°45'1918.7
2016-May-13 09:33S 32°39' E 152°37'1919.0
2016-May-13 08:33S 32°57' E 152°29'1818.4
2016-May-13 07:33S 33°14' E 152°21'1818.3
2016-May-13 06:33S 33°31' E 152°13'16120.0
2016-May-12 22:31S 36°01' E 150°59'1919.4
2016-May-12 21:33S 36°18' E 150°51'1919.3
2016-May-12 20:33S 36°36' E 150°42'1919.2
2016-May-12 19:33S 36°54' E 150°33'1919.0
2016-May-12 18:33S 37°11' E 150°25'2020.4
2016-May-12 17:33S 37°30' E 150°15'2019.7
2016-May-12 16:33S 37°45' E 149°58'2020.4
2016-May-12 15:33S 37°57' E 149°38'2020.1
2016-May-12 14:33S 38°10' E 149°18'2019.6
2016-May-12 13:33S 38°22' E 148°58'2020.0
2016-May-12 12:33S 38°34' E 148°37'2120.6
2016-May-12 11:33S 38°46' E 148°17'4221.1
2016-May-12 09:33S 39°02' E 147°26'2120.7
2016-May-12 08:33S 39°09' E 147°01'2020.2
2016-May-12 07:33S 39°16' E 146°37'2019.7
2016-May-12 06:33S 39°16' E 146°12'2120.7
2016-May-12 05:33S 39°05' E 145°49'  
2016-May-09 23:30S 38°60' E 145°46'1313.9
2016-May-09 22:33S 39°06' E 146°00'1514.9
2016-May-09 21:33S 39°12' E 146°18'1616.0
2016-May-09 20:33S 39°07' E 146°38'1615.8
2016-May-09 19:33S 39°02' E 146°57'1615.5
2016-May-09 18:33S 38°57' E 147°16'1615.7
2016-May-09 17:33S 38°53' E 147°35'5417.7
2016-May-09 14:29S 38°27' E 148°37'1617.3
2016-May-09 13:33S 38°18' E 148°53'1817.5
2016-May-09 12:33S 38°08' E 149°12'1817.6
2016-May-09 11:33S 37°58' E 149°30'1817.8
2016-May-09 10:33S 37°48' E 149°49'1716.6
2016-May-09 09:33S 37°39' E 150°06'1414.2
2016-May-09 08:33S 37°26' E 150°13'1515.2
2016-May-09 07:33S 37°12' E 150°20'1615.5
2016-May-09 06:33S 36°57' E 150°26'1717.1
2016-May-09 05:33S 36°40' E 150°32'1818.2
2016-May-09 04:33S 36°23' E 150°36'2617.9
2016-May-09 03:05S 35°57' E 150°44'  
2016-May-06 21:33S 33°31' E 151°48'1818.3
2016-May-06 20:33S 33°16' E 152°01'1818.1
2016-May-06 19:33S 33°02' E 152°13'1717.6
2016-May-06 18:34S 32°48' E 152°26'1515.1
2016-May-06 17:33S 32°35' E 152°36'1414.1
2016-May-06 16:34S 32°23' E 152°44'27517.0
2016-May-06 00:23S 27°55' E 153°54'1619.2
2016-May-05 23:33S 27°39' E 153°55'3819.2
2016-May-05 21:33S 27°01' E 153°56'  

Dump ship's entire track history